Time,TemperatureF,DewpointF,PressureIn,WindDirection,WindDirectionDegrees,WindSpeedMPH,WindSpeedGustMPH,Humidity,HourlyPrecipIn,Conditions,Clouds,dailyrainin,SoftwareType,DateUTC
2013-02-15 00:02:00,34.0,34.0,30.03,West,277,0.0,0.0,100,0.00,,CLR,0.00,VWS V14.01,2013-02-15 06:02:00,
2013-02-15 00:07:00,34.0,34.0,30.03,WNW,298,0.0,0.0,100,0.00,,CLR,0.00,VWS V14.01,2013-02-15 06:07:00,
2013-02-15 00:12:00,34.0,34.0,30.03,NNW,338,0.0,0.0,100,0.00,,CLR,0.00,VWS V14.01,2013-02-15 06:12:00,
2013-02-15 00:17:00,34.0,34.0,30.03,NNW,335,0.0,0.0,100,0.00,,CLR,0.00,VWS V14.01,2013-02-15 06:17:00,
2013-02-15 00:22:00,33.8,33.8,30.03,WSW,249,2.7,4.0,100,0.00,,CLR,0.00,VWS V14.01,2013-02-15 06:22:00,
2013-02-15 00:27:00,33.8,33.8,30.03,NNW,340,4.0,5.8,100,0.00,,CLR,0.00,VWS V14.01,2013-02-15 06:27:00,
2013-02-15 00:32:00,33.8,33.8,30.03,NNW,332,0.0,4.0,100,0.00,,CLR,0.00,VWS V14.01,2013-02-15 06:32:00,
2013-02-15 00:37:00,33.8,33.8,30.03,NNW,344,0.0,3.6,100,0.00,,CLR,0.00,VWS V14.01,2013-02-15 06:37:00,
2013-02-15 00:42:00,33.8,33.8,30.03,WSW,247,0.0,5.4,100,0.00,,CLR,0.00,VWS V14.01,2013-02-15 06:42:00,
2013-02-15 00:47:00,33.8,33.8,30.06,North,7,0.0,3.6,100,0.00,,CLR,0.00,VWS V14.01,2013-02-15 06:47:00,
2013-02-15 00:52:00,33.8,33.8,30.06,NNW,345,6.3,6.3,100,0.00,,CLR,0.00,VWS V14.01,2013-02-15 06:52:00,
2013-02-15 00:57:00,33.8,33.8,30.06,NNW,332,3.6,8.1,100,0.00,,CLR,0.00,VWS V14.01,2013-02-15 06:57:00,
2013-02-15 01:03:00,33.8,33.8,30.06,NNE,29,0.0,7.2,100,0.00,,SCT025,0.00,VWS V14.01,2013-02-15 07:03:00,
2013-02-15 01:08:00,33.8,33.8,30.06,NE,39,2.2,4.9,100,0.00,,SCT025,0.00,VWS V14.01,2013-02-15 07:08:00,
2013-02-15 01:13:00,33.8,33.8,30.06,NNW,330,5.8,10.5,100,0.00,,SCT025,0.00,VWS V14.01,2013-02-15 07:13:00,
2013-02-15 01:18:00,33.8,33.8,30.06,North,0,5.4,10.5,100,0.00,,SCT025,0.00,VWS V14.01,2013-02-15 07:18:00,
2013-02-15 01:23:00,33.6,33.6,30.06,NNW,338,5.8,12.3,100,0.00,,BKN027,0.00,VWS V14.01,2013-02-15 07:23:00,
2013-02-15 01:28:00,33.3,33.3,30.06,North,357,8.3,10.1,100,0.00,,BKN027,0.00,VWS V14.01,2013-02-15 07:28:00,
2013-02-15 01:33:00,33.3,32.8,30.06,NW,318,8.3,10.5,98,0.00,,BKN027,0.00,VWS V14.01,2013-02-15 07:33:00,
2013-02-15 01:38:00,33.3,32.8,30.06,NNW,344,0.0,10.1,98,0.00,,BKN027,0.00,VWS V14.01,2013-02-15 07:38:00,
2013-02-15 01:43:00,33.1,32.6,30.06,NNW,328,3.6,9.2,98,0.00,,OVC027,0.00,VWS V14.01,2013-02-15 07:43:00,
2013-02-15 01:48:00,32.9,32.4,30.06,NNW,329,4.0,6.3,98,0.00,,OVC027,0.00,VWS V14.01,2013-02-15 07:48:00,
2013-02-15 01:53:00,32.7,32.2,30.06,North,357,8.3,8.3,98,0.00,,OVC027,0.00,VWS V14.01,2013-02-15 07:53:00,
2013-02-15 01:58:00,32.5,32.0,30.06,NW,314,3.1,8.1,98,0.00,,OVC027,0.00,VWS V14.01,2013-02-15 07:58:00,
2013-02-15 02:04:00,32.4,31.9,30.06,NNW,345,3.6,10.5,98,0.00,,OVC039,0.00,VWS V14.01,2013-02-15 08:04:00,
2013-02-15 02:09:00,32.2,31.7,30.06,NW,320,2.7,6.3,98,0.00,,OVC039,0.00,VWS V14.01,2013-02-15 08:09:00,
2013-02-15 02:14:00,31.8,31.3,30.06,NNE,14,2.2,6.3,98,0.00,,OVC039,0.00,VWS V14.01,2013-02-15 08:14:00,
2013-02-15 02:19:00,31.5,31.0,30.09,North,353,2.7,4.9,98,0.00,,OVC039,0.00,VWS V14.01,2013-02-15 08:19:00,
2013-02-15 02:24:00,31.1,30.6,30.09,NW,318,2.7,4.0,98,0.00,,OVC047,0.00,VWS V14.01,2013-02-15 08:24:00,
2013-02-15 02:29:00,30.9,30.4,30.09,NW,313,4.0,8.1,98,0.00,,OVC047,0.00,VWS V14.01,2013-02-15 08:29:00,
2013-02-15 02:34:00,30.7,30.2,30.09,WSW,239,3.1,4.9,98,0.00,,OVC047,0.00,VWS V14.01,2013-02-15 08:34:00,
2013-02-15 02:39:00,30.6,30.1,30.09,NW,316,0.0,5.8,98,0.00,,OVC039,0.00,VWS V14.01,2013-02-15 08:39:00,
2013-02-15 02:44:00,30.4,29.9,30.09,NW,312,0.0,5.8,98,0.00,,OVC039,0.00,VWS V14.01,2013-02-15 08:44:00,
2013-02-15 02:49:00,30.2,29.7,30.09,NW,326,4.0,8.7,98,0.00,,OVC039,0.00,VWS V14.01,2013-02-15 08:49:00,
2013-02-15 02:54:00,30.0,30.0,30.09,West,280,2.2,8.1,100,0.00,,OVC039,0.00,VWS V14.01,2013-02-15 08:54:00,
2013-02-15 03:00:00,30.2,30.2,30.09,NW,310,5.4,8.1,100,0.00,,OVC039,0.00,VWS V14.01,2013-02-15 09:00:00,
2013-02-15 03:05:00,30.2,30.2,30.09,NW,324,3.6,5.8,100,0.00,,OVC026,0.00,VWS V14.01,2013-02-15 09:05:00,
2013-02-15 03:10:00,30.2,30.2,30.09,NNW,339,2.7,6.3,100,0.00,,OVC026,0.00,VWS V14.01,2013-02-15 09:10:00,
2013-02-15 03:15:00,30.2,30.2,30.09,ENE,63,4.0,6.3,100,0.00,,OVC026,0.00,VWS V14.01,2013-02-15 09:15:00,
2013-02-15 03:20:00,30.2,30.2,30.09,NNW,334,2.7,4.9,100,0.00,,OVC045,0.00,VWS V14.01,2013-02-15 09:20:00,
2013-02-15 03:25:00,30.2,30.2,30.09,SSW,198,4.0,4.0,100,0.00,,OVC045,0.00,VWS V14.01,2013-02-15 09:25:00,
2013-02-15 03:30:00,30.0,30.0,30.11,NNW,346,2.7,3.1,100,0.00,,OVC045,0.00,VWS V14.01,2013-02-15 09:30:00,
2013-02-15 03:35:00,30.0,29.5,30.11,NNW,335,7.2,7.2,98,0.00,,OVC045,0.00,VWS V14.01,2013-02-15 09:35:00,
2013-02-15 03:40:00,30.0,29.5,30.11,West,273,5.4,5.4,98,0.00,,SCT045,0.00,VWS V14.01,2013-02-15 09:40:00,
2013-02-15 03:45:00,29.8,29.3,30.11,NNW,341,4.0,7.6,98,0.00,,SCT045,0.00,VWS V14.01,2013-02-15 09:45:00,
2013-02-15 03:50:00,29.8,29.3,30.11,NNE,17,4.9,4.9,98,0.00,,SCT045,0.00,VWS V14.01,2013-02-15 09:50:00,
2013-02-15 03:56:00,29.8,29.3,30.11,North,4,0.0,2.2,98,0.00,,SCT045,0.00,VWS V14.01,2013-02-15 09:56:00,
2013-02-15 04:01:00,29.7,29.2,30.11,NW,313,6.3,8.3,98,0.00,,CLR,0.00,VWS V14.01,2013-02-15 10:01:00,
2013-02-15 04:06:00,29.3,26.1,30.11,WNW,294,9.2,9.2,88,0.00,,CLR,0.00,VWS V14.01,2013-02-15 10:06:00,
2013-02-15 04:11:00,29.1,25.9,30.11,NNW,337,8.1,10.1,88,0.00,,CLR,0.00,VWS V14.01,2013-02-15 10:11:00,
2013-02-15 04:16:00,28.9,25.7,30.11,WNW,293,5.8,6.3,88,0.00,,CLR,0.00,VWS V14.01,2013-02-15 10:16:00,
2013-02-15 04:21:00,28.9,25.7,30.11,NNW,341,3.6,4.0,88,0.00,,CLR,0.00,VWS V14.01,2013-02-15 10:21:00,
2013-02-15 04:26:00,28.9,25.7,30.11,NW,326,6.3,7.2,88,0.00,,CLR,0.00,VWS V14.01,2013-02-15 10:26:00,
2013-02-15 04:31:00,28.6,25.4,30.11,North,357,3.6,7.6,88,0.00,,CLR,0.00,VWS V14.01,2013-02-15 10:31:00,
2013-02-15 04:36:00,28.4,26.1,30.11,North,357,3.6,8.1,91,0.00,,CLR,0.00,VWS V14.01,2013-02-15 10:36:00,
2013-02-15 04:41:00,28.2,25.9,30.11,North,350,3.6,3.6,91,0.00,,SCT031,0.00,VWS V14.01,2013-02-15 10:41:00,
2013-02-15 04:46:00,27.9,25.6,30.11,North,350,4.0,6.3,91,0.00,,SCT031,0.00,VWS V14.01,2013-02-15 10:46:00,
2013-02-15 04:51:00,27.7,25.4,30.11,NW,313,5.4,11.0,91,0.00,,SCT031,0.00,VWS V14.01,2013-02-15 10:51:00,
2013-02-15 04:57:00,27.5,25.2,30.11,NNW,348,3.1,6.3,91,0.00,,SCT031,0.00,VWS V14.01,2013-02-15 10:57:00,
2013-02-15 05:02:00,27.5,25.2,30.14,NNW,345,3.1,7.6,91,0.00,,BKN031,0.00,VWS V14.01,2013-02-15 11:02:00,
2013-02-15 05:07:00,27.3,25.0,30.14,WNW,293,4.0,8.3,91,0.00,,BKN031,0.00,VWS V14.01,2013-02-15 11:07:00,
2013-02-15 05:12:00,27.3,25.0,30.14,NW,312,9.2,9.2,91,0.00,,BKN031,0.00,VWS V14.01,2013-02-15 11:12:00,
2013-02-15 05:17:00,27.1,24.9,30.14,NNW,340,10.1,10.1,91,0.00,,BKN031,0.00,VWS V14.01,2013-02-15 11:17:00,
2013-02-15 05:22:00,27.0,24.7,30.14,NNW,335,4.0,7.6,91,0.00,,OVC031,0.00,VWS V14.01,2013-02-15 11:22:00,
2013-02-15 05:27:00,26.8,24.5,30.14,NNW,335,4.5,8.3,91,0.00,,OVC031,0.00,VWS V14.01,2013-02-15 11:27:00,
2013-02-15 05:32:00,26.4,24.1,30.14,North,357,3.6,8.7,91,0.00,,OVC031,0.00,VWS V14.01,2013-02-15 11:32:00,
2013-02-15 05:37:00,26.2,24.0,30.14,NNW,339,3.1,8.1,91,0.00,,OVC031,0.00,VWS V14.01,2013-02-15 11:37:00,
2013-02-15 05:42:00,26.1,23.8,30.14,WNW,302,3.1,10.1,91,0.00,,OVC029,0.00,VWS V14.01,2013-02-15 11:42:00,
2013-02-15 05:47:00,25.9,23.6,30.14,NW,315,6.3,8.3,91,0.00,,OVC029,0.00,VWS V14.01,2013-02-15 11:47:00,
2013-02-15 05:53:00,25.9,23.6,30.14,WNW,298,2.2,6.3,91,0.00,,OVC029,0.00,VWS V14.01,2013-02-15 11:53:00,
2013-02-15 05:58:00,25.7,23.4,30.14,WNW,299,4.9,6.3,91,0.00,,OVC029,0.00,VWS V14.01,2013-02-15 11:58:00,
2013-02-15 06:03:00,25.7,23.4,30.14,WNW,296,5.4,8.1,91,0.00,,OVC016,0.00,VWS V14.01,2013-02-15 12:03:00,
2013-02-15 06:08:00,25.5,23.3,30.14,NNW,339,3.1,6.3,91,0.00,,OVC016,0.00,VWS V14.01,2013-02-15 12:08:00,
2013-02-15 06:13:00,25.3,23.1,30.14,NW,320,6.3,10.1,91,0.00,,OVC016,0.00,VWS V14.01,2013-02-15 12:13:00,
2013-02-15 06:18:00,25.3,23.1,30.14,NW,324,7.2,9.2,91,0.00,,OVC028,0.00,VWS V14.01,2013-02-15 12:18:00,
2013-02-15 06:23:00,25.2,22.9,30.14,NNW,345,5.8,8.7,91,0.00,,OVC028,0.00,VWS V14.01,2013-02-15 12:23:00,
2013-02-15 06:28:00,25.0,22.7,30.14,North,0,5.8,11.4,91,0.00,,OVC028,0.00,VWS V14.01,2013-02-15 12:28:00,
2013-02-15 06:33:00,24.6,23.3,30.17,WSW,241,4.0,8.1,94,0.00,,OVC028,0.00,VWS V14.01,2013-02-15 12:33:00,
2013-02-15 06:38:00,24.4,23.1,30.17,NW,315,0.0,8.1,94,0.00,,BKN030,0.00,VWS V14.01,2013-02-15 12:38:00,
2013-02-15 06:43:00,24.4,23.1,30.17,NW,325,2.2,6.3,94,0.00,,BKN030,0.00,VWS V14.01,2013-02-15 12:43:00,
2013-02-15 06:49:00,24.3,22.9,30.17,North,0,10.5,11.9,94,0.00,,BKN030,0.00,VWS V14.01,2013-02-15 12:49:00,
2013-02-15 06:54:00,24.3,22.9,30.17,NNW,348,4.0,8.1,94,0.00,,BKN030,0.00,VWS V14.01,2013-02-15 12:54:00,
2013-02-15 06:59:00,24.1,22.7,30.17,NW,318,5.8,12.3,94,0.00,,BKN030,0.00,VWS V14.01,2013-02-15 12:59:00,
2013-02-15 07:04:00,24.1,22.7,30.17,NW,324,8.3,12.8,94,0.00,,SCT018,0.00,VWS V14.01,2013-02-15 13:04:00,
2013-02-15 07:09:00,23.9,22.5,30.17,WSW,254,4.0,4.9,94,0.00,,SCT018,0.00,VWS V14.01,2013-02-15 13:09:00,
2013-02-15 07:14:00,23.7,22.4,30.17,West,279,2.7,8.7,94,0.00,,SCT018,0.00,VWS V14.01,2013-02-15 13:14:00,
2013-02-15 07:19:00,23.7,22.4,30.20,NNW,331,5.4,8.7,94,0.00,,SCT018,0.00,VWS V14.01,2013-02-15 13:19:00,
2013-02-15 07:24:00,23.7,22.4,30.20,North,353,7.6,10.5,94,0.00,,CLR,0.00,VWS V14.01,2013-02-15 13:24:00,
2013-02-15 07:29:00,23.7,22.4,30.20,NNW,338,8.1,11.0,94,0.00,,CLR,0.00,VWS V14.01,2013-02-15 13:29:00,
2013-02-15 07:34:00,23.7,22.4,30.20,NW,320,4.9,9.2,94,0.00,,CLR,0.00,VWS V14.01,2013-02-15 13:34:00,
2013-02-15 07:39:00,23.7,22.4,30.20,NNW,348,5.8,12.3,94,0.00,,CLR,0.00,VWS V14.01,2013-02-15 13:39:00,
2013-02-15 07:44:00,24.1,22.7,30.20,North,353,3.1,10.5,94,0.00,,CLR,0.00,VWS V14.01,2013-02-15 13:44:00,
2013-02-15 07:50:00,24.3,22.9,30.20,NNW,341,8.3,10.1,94,0.00,,CLR,0.00,VWS V14.01,2013-02-15 13:50:00,
2013-02-15 07:55:00,24.3,22.9,30.20,North,0,4.9,12.8,94,0.00,,CLR,0.00,VWS V14.01,2013-02-15 13:55:00,
2013-02-15 08:00:00,24.3,22.9,30.20,NE,40,10.1,12.3,94,0.00,,CLR,0.00,VWS V14.01,2013-02-15 14:00:00,
2013-02-15 08:05:00,24.4,23.1,30.20,NNW,332,12.3,15.4,94,0.00,,CLR,0.00,VWS V14.01,2013-02-15 14:05:00,
2013-02-15 08:10:00,24.4,23.1,30.20,NNW,339,9.6,11.0,94,0.00,,CLR,0.00,VWS V14.01,2013-02-15 14:10:00,
2013-02-15 08:15:00,24.8,23.5,30.20,North,353,12.8,12.8,94,0.00,,CLR,0.00,VWS V14.01,2013-02-15 14:15:00,
2013-02-15 08:20:00,24.8,23.5,30.20,North,6,8.1,8.1,94,0.00,,CLR,0.00,VWS V14.01,2013-02-15 14:20:00,
2013-02-15 08:25:00,24.6,23.3,30.20,North,0,5.8,8.1,94,0.00,,CLR,0.00,VWS V14.01,2013-02-15 14:25:00,
2013-02-15 08:30:00,24.8,23.5,30.23,North,4,8.3,8.7,94,0.00,,CLR,0.00,VWS V14.01,2013-02-15 14:30:00,
2013-02-15 08:35:00,25.2,22.9,30.23,NW,309,8.3,8.7,91,0.00,,CLR,0.00,VWS V14.01,2013-02-15 14:35:00,
2013-02-15 08:40:00,25.5,23.3,30.23,North,5,3.6,8.1,91,0.00,,CLR,0.00,VWS V14.01,2013-02-15 14:40:00,
2013-02-15 08:45:00,25.5,23.3,30.23,NNW,337,5.8,7.6,91,0.00,,CLR,0.00,VWS V14.01,2013-02-15 14:45:00,
2013-02-15 08:50:00,25.7,23.4,30.23,North,353,8.3,8.3,91,0.00,,CLR,0.00,VWS V14.01,2013-02-15 14:50:00,
2013-02-15 08:55:00,25.5,23.3,30.23,NNE,30,7.2,10.1,91,0.00,,CLR,0.00,VWS V14.01,2013-02-15 14:55:00,
2013-02-15 09:00:00,25.9,23.6,30.23,North,4,10.5,10.5,91,0.00,,CLR,0.00,VWS V14.01,2013-02-15 15:00:00,
2013-02-15 09:06:00,25.7,23.4,30.23,North,10,8.7,8.7,91,0.00,,CLR,0.00,VWS V14.01,2013-02-15 15:06:00,
2013-02-15 09:11:00,25.9,23.6,30.23,NNW,335,4.0,8.7,91,0.00,,CLR,0.00,VWS V14.01,2013-02-15 15:11:00,
2013-02-15 09:16:00,26.2,24.0,30.23,North,0,7.6,11.0,91,0.00,,CLR,0.00,VWS V14.01,2013-02-15 15:16:00,
2013-02-15 09:21:00,26.8,24.5,30.23,North,0,8.3,10.5,91,0.00,,CLR,0.00,VWS V14.01,2013-02-15 15:21:00,
2013-02-15 09:26:00,27.0,24.7,30.23,NNW,329,10.1,12.8,91,0.00,,CLR,0.00,VWS V14.01,2013-02-15 15:26:00,
2013-02-15 09:31:00,27.0,24.7,30.23,North,0,11.0,11.0,91,0.00,,CLR,0.00,VWS V14.01,2013-02-15 15:31:00,
2013-02-15 09:36:00,26.6,24.3,30.23,North,0,9.6,12.3,91,0.00,,CLR,0.00,VWS V14.01,2013-02-15 15:36:00,
2013-02-15 09:41:00,27.1,24.9,30.23,North,8,3.1,9.2,91,0.00,,CLR,0.00,VWS V14.01,2013-02-15 15:41:00,
2013-02-15 09:46:00,27.3,25.0,30.23,NW,311,8.1,10.1,91,0.00,,CLR,0.00,VWS V14.01,2013-02-15 15:46:00,
2013-02-15 09:51:00,27.1,24.9,30.23,North,349,5.8,10.5,91,0.00,,CLR,0.00,VWS V14.01,2013-02-15 15:51:00,
2013-02-15 09:57:00,27.5,25.2,30.23,North,357,5.8,5.8,91,0.00,,CLR,0.00,VWS V14.01,2013-02-15 15:57:00,
2013-02-15 10:02:00,27.9,25.6,30.23,NW,304,8.3,8.3,91,0.00,,CLR,0.00,VWS V14.01,2013-02-15 16:02:00,
2013-02-15 10:07:00,27.9,25.6,30.23,NNW,328,6.3,12.8,91,0.00,,CLR,0.00,VWS V14.01,2013-02-15 16:07:00,
2013-02-15 10:12:00,28.0,25.8,30.23,NNW,339,6.3,6.7,91,0.00,,CLR,0.00,VWS V14.01,2013-02-15 16:12:00,
2013-02-15 10:17:00,28.8,25.5,30.23,SW,220,4.0,7.6,88,0.00,,CLR,0.00,VWS V14.01,2013-02-15 16:17:00,
2013-02-15 10:22:00,29.3,26.1,30.23,North,350,8.3,12.3,88,0.00,,SCT022,0.00,VWS V14.01,2013-02-15 16:22:00,
2013-02-15 10:27:00,29.5,26.2,30.23,NNE,17,10.5,11.0,88,0.00,,SCT022,0.00,VWS V14.01,2013-02-15 16:27:00,
2013-02-15 10:32:00,29.5,26.2,30.23,NNW,331,10.5,10.5,88,0.00,,SCT022,0.00,VWS V14.01,2013-02-15 16:32:00,
2013-02-15 10:37:00,29.5,26.2,30.23,NW,307,6.3,8.1,88,0.00,,SCT022,0.00,VWS V14.01,2013-02-15 16:37:00,
2013-02-15 10:42:00,29.7,26.4,30.23,NNW,348,8.3,8.7,88,0.00,,SCT022,0.00,VWS V14.01,2013-02-15 16:42:00,
2013-02-15 10:48:00,29.8,26.6,30.23,NW,306,5.4,11.0,88,0.00,,SCT022,0.00,VWS V14.01,2013-02-15 16:48:00,
2013-02-15 10:53:00,30.6,27.3,30.23,North,1,5.8,8.7,88,0.00,,SCT022,0.00,VWS V14.01,2013-02-15 16:53:00,
2013-02-15 10:58:00,31.3,28.0,30.23,North,357,8.1,9.2,88,0.00,,SCT022,0.00,VWS V14.01,2013-02-15 16:58:00,
2013-02-15 11:03:00,31.6,28.4,30.23,NW,311,6.3,12.8,88,0.00,,SCT024,0.00,VWS V14.01,2013-02-15 17:03:00,
2013-02-15 11:08:00,31.5,28.2,30.23,North,7,10.5,12.8,88,0.00,,SCT024,0.00,VWS V14.01,2013-02-15 17:08:00,
2013-02-15 11:13:00,31.1,27.8,30.23,North,353,5.8,13.2,88,0.00,,SCT024,0.00,VWS V14.01,2013-02-15 17:13:00,
2013-02-15 11:18:00,31.6,28.4,30.20,NW,321,2.7,8.7,88,0.00,,SCT024,0.00,VWS V14.01,2013-02-15 17:18:00,
2013-02-15 11:23:00,32.5,29.2,30.20,WNW,292,9.6,10.5,88,0.00,,CLR,0.00,VWS V14.01,2013-02-15 17:23:00,
2013-02-15 11:28:00,32.9,29.6,30.20,NNW,346,5.8,10.1,88,0.00,,CLR,0.00,VWS V14.01,2013-02-15 17:28:00,
2013-02-15 11:33:00,32.9,29.6,30.23,NW,306,6.3,8.3,88,0.00,,CLR,0.00,VWS V14.01,2013-02-15 17:33:00,
2013-02-15 11:38:00,33.3,30.0,30.23,WNW,303,4.9,6.3,88,0.00,,CLR,0.00,VWS V14.01,2013-02-15 17:38:00,
2013-02-15 11:43:00,33.3,30.0,30.23,North,353,3.6,8.7,88,0.00,,CLR,0.00,VWS V14.01,2013-02-15 17:43:00,
2013-02-15 11:49:00,33.3,30.0,30.23,NNW,345,5.8,9.2,88,0.00,,CLR,0.00,VWS V14.01,2013-02-15 17:49:00,
2013-02-15 11:54:00,33.3,30.0,30.23,NW,306,3.6,7.6,88,0.00,,CLR,0.00,VWS V14.01,2013-02-15 17:54:00,
2013-02-15 11:59:00,33.8,30.5,30.23,NNW,331,6.3,12.8,88,0.00,,CLR,0.00,VWS V14.01,2013-02-15 17:59:00,
2013-02-15 12:04:00,33.8,30.5,30.23,NNW,335,5.4,8.3,88,0.00,,CLR,0.00,VWS V14.01,2013-02-15 18:04:00,
2013-02-15 12:09:00,33.8,30.5,30.23,NW,319,7.6,8.3,88,0.00,,CLR,0.00,VWS V14.01,2013-02-15 18:09:00,
2013-02-15 12:14:00,33.8,30.5,30.20,NNW,331,3.6,12.3,88,0.00,,CLR,0.00,VWS V14.01,2013-02-15 18:14:00,
2013-02-15 12:19:00,33.8,30.5,30.20,North,5,3.6,8.1,88,0.00,,CLR,0.00,VWS V14.01,2013-02-15 18:19:00,
2013-02-15 12:24:00,34.2,30.8,30.20,North,357,7.6,8.3,88,0.00,,CLR,0.00,VWS V14.01,2013-02-15 18:24:00,
2013-02-15 12:29:00,33.8,30.5,30.20,NW,315,4.5,10.1,88,0.00,,CLR,0.00,VWS V14.01,2013-02-15 18:29:00,
2013-02-15 12:34:00,34.2,30.8,30.20,North,1,3.1,6.3,88,0.00,,CLR,0.00,VWS V14.01,2013-02-15 18:34:00,
2013-02-15 12:39:00,34.3,31.0,30.20,WNW,294,6.3,8.1,88,0.00,,CLR,0.00,VWS V14.01,2013-02-15 18:39:00,
2013-02-15 12:45:00,34.5,31.2,30.20,West,276,4.0,10.5,88,0.00,,CLR,0.00,VWS V14.01,2013-02-15 18:45:00,
2013-02-15 12:50:00,34.5,31.2,30.20,West,264,3.1,10.5,88,0.00,,CLR,0.00,VWS V14.01,2013-02-15 18:50:00,
2013-02-15 12:55:00,34.9,31.5,30.20,NNW,338,4.5,8.1,88,0.00,,CLR,0.00,VWS V14.01,2013-02-15 18:55:00,
2013-02-15 13:00:00,34.9,31.5,30.20,North,357,5.8,12.8,88,0.00,,CLR,0.00,VWS V14.01,2013-02-15 19:00:00,
2013-02-15 13:05:00,34.9,31.5,30.20,NNW,328,5.8,5.8,88,0.00,,CLR,0.00,VWS V14.01,2013-02-15 19:05:00,
2013-02-15 13:10:00,35.1,31.7,30.20,West,279,0.0,10.5,88,0.00,,CLR,0.00,VWS V14.01,2013-02-15 19:10:00,
2013-02-15 13:15:00,35.2,31.9,30.20,NW,320,11.0,11.0,88,0.00,,CLR,0.00,VWS V14.01,2013-02-15 19:15:00,
2013-02-15 13:20:00,35.2,31.9,30.20,NNW,338,3.1,8.7,88,0.00,,CLR,0.00,VWS V14.01,2013-02-15 19:20:00,
2013-02-15 13:25:00,35.4,32.1,30.20,WNW,291,4.9,9.2,88,0.00,,CLR,0.00,VWS V14.01,2013-02-15 19:25:00,
2013-02-15 13:30:00,35.8,31.4,30.20,NNW,338,8.3,8.7,84,0.00,,CLR,0.00,VWS V14.01,2013-02-15 19:30:00,
2013-02-15 13:35:00,35.4,32.1,30.20,North,350,6.3,11.0,88,0.00,,CLR,0.00,VWS V14.01,2013-02-15 19:35:00,
2013-02-15 13:40:00,36.0,31.6,30.20,WNW,303,6.3,6.3,84,0.00,,CLR,0.00,VWS V14.01,2013-02-15 19:40:00,
2013-02-15 13:45:00,36.3,32.0,30.20,WNW,289,5.8,7.6,84,0.00,,CLR,0.00,VWS V14.01,2013-02-15 19:45:00,
2013-02-15 13:50:00,36.1,31.8,30.20,West,266,8.1,8.1,84,0.00,,CLR,0.00,VWS V14.01,2013-02-15 19:50:00,
2013-02-15 13:55:00,36.5,32.1,30.20,NNW,332,0.0,0.0,84,0.00,,CLR,0.00,VWS V14.01,2013-02-15 19:55:00,
2013-02-15 14:00:00,36.5,32.1,30.20,NNE,16,9.2,12.3,84,0.00,,CLR,0.00,VWS V14.01,2013-02-15 20:00:00,
2013-02-15 14:05:00,36.1,31.8,30.20,West,279,5.8,5.8,84,0.00,,SCT046,0.00,VWS V14.01,2013-02-15 20:05:00,
2013-02-15 14:11:00,36.1,31.8,30.20,West,268,5.4,5.4,84,0.00,,SCT046,0.00,VWS V14.01,2013-02-15 20:11:00,
2013-02-15 14:16:00,36.5,32.1,30.20,NNW,340,7.6,7.6,84,0.00,,SCT046,0.00,VWS V14.01,2013-02-15 20:16:00,
2013-02-15 14:21:00,36.5,32.1,30.20,West,279,0.0,0.0,84,0.00,,SCT046,0.00,VWS V14.01,2013-02-15 20:21:00,
2013-02-15 14:26:00,36.7,32.3,30.20,NNW,345,8.3,8.3,84,0.00,,CLR,0.00,VWS V14.01,2013-02-15 20:26:00,
2013-02-15 14:31:00,36.5,32.1,30.20,NNW,343,2.7,3.1,84,0.00,,CLR,0.00,VWS V14.01,2013-02-15 20:31:00,
2013-02-15 14:36:00,36.3,32.0,30.20,WSW,256,3.6,6.3,84,0.00,,CLR,0.00,VWS V14.01,2013-02-15 20:36:00,
2013-02-15 14:41:00,36.9,32.5,30.20,NNW,341,6.3,8.3,84,0.00,,CLR,0.00,VWS V14.01,2013-02-15 20:41:00,
2013-02-15 14:46:00,37.0,32.7,30.20,WSW,256,7.2,11.0,84,0.00,,CLR,0.00,VWS V14.01,2013-02-15 20:46:00,
2013-02-15 14:51:00,36.7,32.3,30.20,West,263,7.6,11.4,84,0.00,,CLR,0.00,VWS V14.01,2013-02-15 20:51:00,
2013-02-15 14:56:00,36.3,32.0,30.20,NNW,338,8.3,8.7,84,0.00,,CLR,0.00,VWS V14.01,2013-02-15 20:56:00,
2013-02-15 15:01:00,36.0,31.6,30.20,WSW,245,3.1,8.3,84,0.00,,CLR,0.00,VWS V14.01,2013-02-15 21:01:00,
2013-02-15 15:07:00,35.8,31.4,30.20,North,357,5.8,7.6,84,0.00,,CLR,0.00,VWS V14.01,2013-02-15 21:07:00,
2013-02-15 15:12:00,36.1,31.8,30.20,NW,309,3.6,5.8,84,0.00,,CLR,0.00,VWS V14.01,2013-02-15 21:12:00,
2013-02-15 15:17:00,36.3,32.0,30.20,NNW,329,3.6,8.3,84,0.00,,CLR,0.00,VWS V14.01,2013-02-15 21:17:00,
2013-02-15 15:22:00,36.1,31.8,30.20,WSW,248,3.1,9.6,84,0.00,,CLR,0.00,VWS V14.01,2013-02-15 21:22:00,
2013-02-15 15:27:00,36.1,31.8,30.20,NW,319,6.3,8.7,84,0.00,,CLR,0.00,VWS V14.01,2013-02-15 21:27:00,
2013-02-15 15:32:00,36.0,31.6,30.20,SW,233,6.3,8.7,84,0.00,,CLR,0.00,VWS V14.01,2013-02-15 21:32:00,
2013-02-15 15:37:00,35.6,31.2,30.20,West,281,0.0,7.2,84,0.00,,CLR,0.00,VWS V14.01,2013-02-15 21:37:00,
2013-02-15 15:42:00,35.1,31.7,30.20,West,277,8.7,8.7,88,0.00,,SCT050,0.00,VWS V14.01,2013-02-15 21:42:00,
2013-02-15 15:47:00,34.7,31.4,30.20,WSW,250,6.3,8.1,88,0.00,,SCT050,0.00,VWS V14.01,2013-02-15 21:47:00,
2013-02-15 15:52:00,34.5,31.2,30.20,WNW,286,12.8,12.8,88,0.00,,SCT050,0.00,VWS V14.01,2013-02-15 21:52:00,
2013-02-15 15:57:00,34.0,30.7,30.20,WSW,243,5.4,8.7,88,0.00,,SCT050,0.00,VWS V14.01,2013-02-15 21:57:00,
2013-02-15 16:02:00,33.4,30.1,30.20,WNW,291,3.6,10.1,88,0.00,,SCT050,0.00,VWS V14.01,2013-02-15 22:02:00,
2013-02-15 16:08:00,32.7,29.4,30.20,ENE,70,3.6,7.6,88,0.00,,CLR,0.00,VWS V14.01,2013-02-15 22:08:00,
2013-02-15 16:12:00,32.5,29.2,30.20,WNW,300,8.1,8.7,88,0.00,,CLR,0.00,VWS V14.01,2013-02-15 22:12:00,
2013-02-15 16:17:00,32.5,29.2,30.23,NNE,12,0.0,5.8,88,0.00,,CLR,0.00,VWS V14.01,2013-02-15 22:17:00,
2013-02-15 16:23:00,32.7,29.4,30.23,NNW,329,5.4,6.7,88,0.00,,CLR,0.00,VWS V14.01,2013-02-15 22:23:00,
2013-02-15 16:28:00,32.7,29.4,30.23,SW,236,8.1,12.3,88,0.00,,CLR,0.00,VWS V14.01,2013-02-15 22:28:00,
2013-02-15 16:33:00,32.5,29.2,30.23,WSW,256,3.6,4.9,88,0.00,,CLR,0.00,VWS V14.01,2013-02-15 22:33:00,
2013-02-15 16:38:00,32.4,29.1,30.23,WNW,295,3.6,8.7,88,0.00,,CLR,0.00,VWS V14.01,2013-02-15 22:38:00,
2013-02-15 16:43:00,32.2,28.9,30.23,WNW,297,5.8,11.0,88,0.00,,CLR,0.00,VWS V14.01,2013-02-15 22:43:00,
2013-02-15 16:48:00,31.8,28.5,30.23,West,264,6.7,8.7,88,0.00,,SCT050,0.00,VWS V14.01,2013-02-15 22:48:00,
2013-02-15 16:53:00,31.5,28.2,30.23,West,269,4.0,8.3,88,0.00,,SCT050,0.00,VWS V14.01,2013-02-15 22:53:00,
2013-02-15 16:58:00,31.3,28.0,30.23,West,279,10.1,10.1,88,0.00,,SCT050,0.00,VWS V14.01,2013-02-15 22:58:00,
2013-02-15 17:03:00,31.1,27.8,30.23,WNW,293,2.7,8.7,88,0.00,,SCT050,0.00,VWS V14.01,2013-02-15 23:03:00,
2013-02-15 17:08:00,30.9,27.6,30.23,SW,230,3.6,8.1,88,0.00,,SCT050,0.00,VWS V14.01,2013-02-15 23:08:00,
2013-02-15 17:13:00,30.7,27.5,30.23,WNW,299,4.5,12.8,88,0.00,,SCT050,0.00,VWS V14.01,2013-02-15 23:13:00,
2013-02-15 17:18:00,30.7,27.5,30.23,WNW,303,0.0,7.6,88,0.00,,CLR,0.00,VWS V14.01,2013-02-15 23:18:00,
2013-02-15 17:24:00,30.6,27.3,30.23,WNW,289,2.7,6.7,88,0.00,,CLR,0.00,VWS V14.01,2013-02-15 23:24:00,
2013-02-15 17:29:00,30.4,27.1,30.23,WNW,290,5.4,8.7,88,0.00,,CLR,0.00,VWS V14.01,2013-02-15 23:29:00,
2013-02-15 17:34:00,30.2,26.9,30.23,West,273,0.0,9.6,88,0.00,,CLR,0.00,VWS V14.01,2013-02-15 23:34:00,
2013-02-15 17:39:00,30.0,26.8,30.23,West,261,5.4,5.4,88,0.00,,CLR,0.00,VWS V14.01,2013-02-15 23:39:00,
2013-02-15 17:44:00,29.7,26.4,30.23,NW,311,4.9,11.9,88,0.00,,CLR,0.00,VWS V14.01,2013-02-15 23:44:00,
2013-02-15 17:49:00,29.5,26.2,30.23,NW,304,3.1,10.1,88,0.00,,CLR,0.00,VWS V14.01,2013-02-15 23:49:00,
2013-02-15 17:54:00,29.3,26.1,30.23,WNW,299,5.8,8.7,88,0.00,,CLR,0.00,VWS V14.01,2013-02-15 23:54:00,
2013-02-15 17:59:00,29.1,25.9,30.20,West,266,2.2,10.1,88,0.00,,CLR,0.00,VWS V14.01,2013-02-15 23:59:00,
2013-02-15 18:04:00,28.9,25.7,30.20,WNW,299,3.1,7.6,88,0.00,,SCT060,0.00,VWS V14.01,2013-02-16 00:04:00,
2013-02-15 18:09:00,28.8,25.5,30.20,WNW,301,5.4,8.1,88,0.00,,SCT060,0.00,VWS V14.01,2013-02-16 00:09:00,
2013-02-15 18:14:00,28.6,25.4,30.23,WSW,256,3.6,13.2,88,0.00,,SCT060,0.00,VWS V14.01,2013-02-16 00:14:00,
2013-02-15 18:19:00,28.4,26.1,30.23,WNW,288,8.3,8.3,91,0.00,,SCT060,0.00,VWS V14.01,2013-02-16 00:19:00,
2013-02-15 18:24:00,28.2,25.9,30.23,NNW,331,2.2,6.7,91,0.00,,SCT060,0.00,VWS V14.01,2013-02-16 00:24:00,
2013-02-15 18:30:00,27.9,25.6,30.23,West,265,10.1,10.1,91,0.00,,SCT060,0.00,VWS V14.01,2013-02-16 00:30:00,
2013-02-15 18:35:00,27.9,25.6,30.23,North,353,3.1,8.1,91,0.00,,SCT060,0.00,VWS V14.01,2013-02-16 00:35:00,
2013-02-15 18:40:00,27.5,25.2,30.23,NW,325,2.7,8.7,91,0.00,,SCT060,0.00,VWS V14.01,2013-02-16 00:40:00,
2013-02-15 18:45:00,27.3,25.0,30.23,NNW,333,4.9,4.9,91,0.00,,BKN060,0.00,VWS V14.01,2013-02-16 00:45:00,
2013-02-15 18:50:00,27.0,24.7,30.23,North,353,4.0,10.5,91,0.00,,BKN060,0.00,VWS V14.01,2013-02-16 00:50:00,
2013-02-15 18:55:00,26.8,21.6,30.23,NW,315,8.1,8.1,80,0.00,,BKN060,0.00,VWS V14.01,2013-02-16 00:55:00,
2013-02-15 19:00:00,26.4,22.2,30.23,NW,309,6.3,12.3,84,0.00,,BKN060,0.00,VWS V14.01,2013-02-16 01:00:00,
2013-02-15 19:05:00,26.2,22.1,30.23,North,357,7.6,7.6,84,0.00,,SCT050,0.00,VWS V14.01,2013-02-16 01:05:00,
2013-02-15 19:10:00,26.1,21.9,30.23,NNW,342,3.1,4.0,84,0.00,,SCT050,0.00,VWS V14.01,2013-02-16 01:10:00,
2013-02-15 19:15:00,25.9,21.7,30.23,NNW,343,4.5,4.5,84,0.00,,SCT050,0.00,VWS V14.01,2013-02-16 01:15:00,
2013-02-15 19:20:00,25.7,21.5,30.23,NNW,348,6.3,8.3,84,0.00,,SCT050,0.00,VWS V14.01,2013-02-16 01:20:00,
2013-02-15 19:26:00,25.5,21.4,30.23,NNW,342,12.3,12.3,84,0.00,,SCT050,0.00,VWS V14.01,2013-02-16 01:26:00,
2013-02-15 19:31:00,25.3,21.2,30.23,NNE,29,4.5,7.6,84,0.00,,SCT050,0.00,VWS V14.01,2013-02-16 01:31:00,
2013-02-15 19:36:00,25.3,21.2,30.23,West,277,0.0,7.6,84,0.00,,SCT050,0.00,VWS V14.01,2013-02-16 01:36:00,
2013-02-15 19:41:00,25.0,20.8,30.23,NW,324,4.0,4.0,84,0.00,,SCT050,0.00,VWS V14.01,2013-02-16 01:41:00,
2013-02-15 19:46:00,24.8,20.7,30.23,South,181,3.6,3.6,84,0.00,,SCT050,0.00,VWS V14.01,2013-02-16 01:46:00,
2013-02-15 19:51:00,24.6,20.5,30.23,NW,313,3.6,4.0,84,0.00,,CLR,0.00,VWS V14.01,2013-02-16 01:51:00,
2013-02-15 19:56:00,24.4,20.3,30.23,NNW,341,3.1,5.8,84,0.00,,CLR,0.00,VWS V14.01,2013-02-16 01:56:00,
2013-02-15 20:01:00,24.4,20.3,30.23,NW,319,5.4,8.3,84,0.00,,CLR,0.00,VWS V14.01,2013-02-16 02:01:00,
2013-02-15 20:06:00,24.4,20.3,30.23,WNW,300,8.1,8.7,84,0.00,,CLR,0.00,VWS V14.01,2013-02-16 02:06:00,
2013-02-15 20:11:00,24.4,20.3,30.23,NNW,336,2.7,8.1,84,0.00,,CLR,0.00,VWS V14.01,2013-02-16 02:11:00,
2013-02-15 20:16:00,24.3,20.1,30.23,WNW,301,2.2,5.4,84,0.00,,CLR,0.00,VWS V14.01,2013-02-16 02:16:00,
2013-02-15 20:22:00,24.1,20.0,30.23,NW,321,4.9,4.9,84,0.00,,CLR,0.00,VWS V14.01,2013-02-16 02:22:00,
2013-02-15 20:27:00,24.1,20.0,30.23,NNW,331,0.0,5.4,84,0.00,,CLR,0.00,VWS V14.01,2013-02-16 02:27:00,
2013-02-15 20:32:00,23.9,19.8,30.23,NW,304,3.6,3.6,84,0.00,,CLR,0.00,VWS V14.01,2013-02-16 02:32:00,
2013-02-15 20:37:00,23.7,19.6,30.23,NW,325,0.0,3.6,84,0.00,,CLR,0.00,VWS V14.01,2013-02-16 02:37:00,
2013-02-15 20:42:00,23.7,19.6,30.23,NNW,335,2.7,6.3,84,0.00,,CLR,0.00,VWS V14.01,2013-02-16 02:42:00,
2013-02-15 20:47:00,23.7,19.6,30.23,WNW,303,6.7,7.6,84,0.00,,CLR,0.00,VWS V14.01,2013-02-16 02:47:00,
2013-02-15 20:52:00,23.5,19.4,30.23,NNW,346,7.6,7.6,84,0.00,,CLR,0.00,VWS V14.01,2013-02-16 02:52:00,
2013-02-15 20:57:00,23.5,19.4,30.23,NW,307,4.0,5.4,84,0.00,,CLR,0.00,VWS V14.01,2013-02-16 02:57:00,
2013-02-15 21:02:00,23.5,19.4,30.23,WNW,288,0.0,4.9,84,0.00,,CLR,0.00,VWS V14.01,2013-02-16 03:02:00,
2013-02-15 21:07:00,23.4,19.2,30.23,North,357,4.0,4.0,84,0.00,,CLR,0.00,VWS V14.01,2013-02-16 03:07:00,
2013-02-15 21:12:00,23.4,19.2,30.23,SSW,211,3.6,6.3,84,0.00,,CLR,0.00,VWS V14.01,2013-02-16 03:12:00,
2013-02-15 21:17:00,23.2,19.1,30.26,WNW,297,0.0,5.4,84,0.00,,CLR,0.00,VWS V14.01,2013-02-16 03:17:00,
2013-02-15 21:22:00,23.2,19.1,30.26,NNW,335,0.0,0.0,84,0.00,,CLR,0.00,VWS V14.01,2013-02-16 03:22:00,
2013-02-15 21:28:00,23.0,19.9,30.26,NW,318,0.0,6.3,88,0.00,,CLR,0.00,VWS V14.01,2013-02-16 03:28:00,
2013-02-15 21:33:00,22.8,19.7,30.23,WNW,298,0.0,0.0,88,0.00,,CLR,0.00,VWS V14.01,2013-02-16 03:33:00,
2013-02-15 21:38:00,22.8,19.7,30.23,NNW,338,0.0,0.0,88,0.00,,CLR,0.00,VWS V14.01,2013-02-16 03:38:00,
2013-02-15 21:43:00,22.8,19.7,30.23,NNW,340,0.0,2.7,88,0.00,,CLR,0.00,VWS V14.01,2013-02-16 03:43:00,
2013-02-15 21:48:00,22.8,19.7,30.23,West,265,0.0,2.2,88,0.00,,CLR,0.00,VWS V14.01,2013-02-16 03:48:00,
2013-02-15 21:53:00,22.6,19.5,30.23,NNW,345,5.8,6.3,88,0.00,,CLR,0.00,VWS V14.01,2013-02-16 03:53:00,
2013-02-15 21:58:00,22.6,19.5,30.23,NNW,337,0.0,0.0,88,0.00,,CLR,0.00,VWS V14.01,2013-02-16 03:58:00,
2013-02-15 22:03:00,22.6,19.5,30.23,NNW,341,0.0,5.8,88,0.00,,CLR,0.00,VWS V14.01,2013-02-16 04:03:00,
2013-02-15 22:08:00,22.5,19.3,30.23,NNW,338,0.0,5.8,88,0.00,,CLR,0.00,VWS V14.01,2013-02-16 04:08:00,
2013-02-15 22:13:00,22.3,19.1,30.23,North,353,0.0,5.4,88,0.00,,CLR,0.00,VWS V14.01,2013-02-16 04:13:00,
2013-02-15 22:18:00,22.3,19.1,30.23,WNW,285,3.1,7.6,88,0.00,,CLR,0.00,VWS V14.01,2013-02-16 04:18:00,
2013-02-15 22:23:00,22.1,19.0,30.23,NNW,338,0.0,0.0,88,0.00,,CLR,0.00,VWS V14.01,2013-02-16 04:23:00,
2013-02-15 22:28:00,22.1,19.0,30.23,NW,314,4.0,5.8,88,0.00,,CLR,0.00,VWS V14.01,2013-02-16 04:28:00,
2013-02-15 22:34:00,22.1,19.0,30.23,North,353,2.7,6.3,88,0.00,,CLR,0.00,VWS V14.01,2013-02-16 04:34:00,
2013-02-15 22:39:00,21.9,18.8,30.23,WNW,288,0.0,5.8,88,0.00,,CLR,0.00,VWS V14.01,2013-02-16 04:39:00,
2013-02-15 22:44:00,21.9,18.8,30.23,NNW,330,0.0,2.7,88,0.00,,CLR,0.00,VWS V14.01,2013-02-16 04:44:00,
2013-02-15 22:49:00,21.9,18.8,30.23,NNW,330,0.0,4.5,88,0.00,,CLR,0.00,VWS V14.01,2013-02-16 04:49:00,
2013-02-15 22:54:00,21.7,18.6,30.23,NW,314,0.0,0.0,88,0.00,,CLR,0.00,VWS V14.01,2013-02-16 04:54:00,
2013-02-15 22:59:00,21.7,18.6,30.23,NNW,328,0.0,4.0,88,0.00,,CLR,0.00,VWS V14.01,2013-02-16 04:59:00,
2013-02-15 23:00:00,21.7,18.6,30.23,NNW,340,4.0,5.8,88,0.00,,CLR,0.00,VWS V14.01,2013-02-16 05:00:00,
2013-02-15 23:01:00,21.7,18.6,30.23,NW,311,0.0,4.0,88,0.00,,CLR,0.00,VWS V14.01,2013-02-16 05:01:00,
2013-02-15 23:06:00,21.6,18.4,30.23,NW,308,3.6,3.6,88,0.00,,CLR,0.00,VWS V14.01,2013-02-16 05:06:00,
2013-02-15 23:11:00,21.6,18.4,30.23,NW,319,0.0,0.0,88,0.00,,CLR,0.00,VWS V14.01,2013-02-16 05:11:00,
2013-02-15 23:16:00,21.4,18.2,30.23,North,350,3.6,6.3,88,0.00,,CLR,0.00,VWS V14.01,2013-02-16 05:16:00,
2013-02-15 23:21:00,21.4,18.2,30.23,NNW,333,6.3,6.3,88,0.00,,CLR,0.00,VWS V14.01,2013-02-16 05:21:00,
2013-02-15 23:23:00,21.4,18.2,30.23,West,267,2.7,6.3,88,0.00,,CLR,0.00,VWS V14.01,2013-02-16 05:23:00,
2013-02-15 23:28:00,21.2,18.1,30.23,NW,313,2.7,3.6,88,0.00,,CLR,0.00,VWS V14.01,2013-02-16 05:28:00,
2013-02-15 23:33:00,21.2,18.1,30.23,NNW,327,2.2,4.0,88,0.00,,CLR,0.00,VWS V14.01,2013-02-16 05:33:00,
2013-02-15 23:38:00,21.0,17.9,30.23,NNW,342,3.6,4.9,88,0.00,,CLR,0.00,VWS V14.01,2013-02-16 05:38:00,
2013-02-15 23:43:00,21.0,17.9,30.23,NNW,335,2.7,5.8,88,0.00,,CLR,0.00,VWS V14.01,2013-02-16 05:43:00,
2013-02-15 23:48:00,21.0,17.9,30.20,NNW,340,5.8,5.8,88,0.00,,CLR,0.00,VWS V14.01,2013-02-16 05:48:00,
2013-02-15 23:53:00,20.8,17.7,30.20,NNW,341,4.0,5.4,88,0.00,,CLR,0.00,VWS V14.01,2013-02-16 05:53:00,
2013-02-15 23:58:00,20.8,17.7,30.20,WNW,302,4.0,4.9,88,0.00,,CLR,0.00,VWS V14.01,2013-02-16 05:58:00,